Owings Mills, Maryland
Current Conditions -  °F | °C
As of 5:54 PM on Friday 31 Oct 2014 (Local Time) from KBWI Reporting Station
Broken Clouds Broken Clouds  
Wind Chill: 52°   Ceiling: 5500
Heat Index: 52°   Visibility: 10mi
Dew Point: 36°   Wind: 3mph
Humidity: 54%   Direction: 130°SE
Pressure: 29.87"   Gusts: NA
Location:  39.41°N, 76.79°W
Report Text: KBWI 312154Z 13003KT 10SM BKN055 11/02 A2987 RMK AO2 SLP113 T01110022
Loading
Personal Weather Stations






























Interactive Weather Map
Tropical Storm Tracking
New forecast layout! Learn more

10-Day Weather Forecast

Advertisements
Track Severe Weather on mobile